Time;durP1;ratioP1;P1;durP2;ratioP2;P2;SDS_P1;SDS_P2;PMS_P1;PMS_P2;Temp;Humidity;BMP_temperature;BMP_pressure;BME280_temperature;BME280_humidity;BME280_pressure;Samples;Min_cycle;Max_cycle;Signal;HPM_P1;HPM_P2
2022/04/23 00:01:35;;;;;;;;;;;;;;;;;;4954255;28;107740;-72
2022/04/23 00:04:02;;;;;;;;;;;;;;;;;;4953677;28;115348;-73
2022/04/23 00:06:28;;;;;;;;;;;;;;;;;;4953302;28;135774;-72
2022/04/23 00:08:55;;;;;;;;;;;;;;;;;;4956273;28;136400;-72
2022/04/23 00:11:21;;;;;;;;;;;;;;;;;;4952993;28;132699;-72
2022/04/23 00:13:48;;;;;;;;;;;;;;;;;;4954351;28;107187;-72
2022/04/23 00:16:15;;;;;;;;;;;;;;;;;;4952863;28;121837;-73
2022/04/23 00:18:44;;;;;;;;;;;;;;;;;;4954539;28;108097;-72
2022/04/23 00:21:11;;;;;;;;;;;;;;;;;;4953366;28;130482;-72
2022/04/23 00:23:37;;;;;;;;;;;;;;;;;;4954460;28;105887;-74
2022/04/23 00:26:03;;;;;;;;;;;;;;;;;;4952634;28;136246;-73
2022/04/23 00:28:29;;;;;;;;;;;;;;;;;;4952761;28;134758;-73
2022/04/23 00:30:56;;;;;;;;;;;;;;;;;;4957168;28;125365;-74
2022/04/23 00:33:22;;;;;;;;;;;;;;;;;;4952158;28;136713;-73
2022/04/23 00:35:49;;;;;;;;;;;;;;;;;;4953540;28;123591;-73
2022/04/23 00:38:16;;;;;;;;;;;;;;;;;;4951531;28;134975;-74
2022/04/23 00:40:43;;;;;;;;;;;;;;;;;;4951751;28;138092;-74
2022/04/23 00:43:12;;;;;;;;;;;;;;;;;;4954168;28;106421;-73
2022/04/23 00:45:40;;;;;;;;;;;;;;;;;;4953689;28;135025;-73
2022/04/23 00:48:07;;;;;;;;;;;;;;;;;;4952587;28;108599;-73
2022/04/23 00:50:33;;;;;;;;;;;;;;;;;;4953635;28;121766;-73
2022/04/23 00:52:59;;;;;;;;;;;;;;;;;;4955671;28;136128;-73
2022/04/23 00:55:26;;;;;;;;;;;;;;;;;;4951769;28;125515;-73
2022/04/23 00:57:52;;;;;;;;;;;;;;;;;;4953388;28;137016;-73
2022/04/23 01:00:19;;;;;;;;;;;;;;;;;;4952459;28;130827;-73
2022/04/23 01:02:45;;;;;;;;;;;;;;;;;;4953001;28;123171;-72
2022/04/23 01:05:12;;;;;;;;;;;;;;;;;;4953179;28;132230;-73
2022/04/23 01:07:38;;;;;;;;;;;;;;;;;;4951700;28;136337;-73
2022/04/23 01:10:06;;;;;;;;;;;;;;;;;;4967827;28;114664;-73
2022/04/23 01:12:32;;;;;;;;;;;;;;;;;;4952333;28;129139;-73
2022/04/23 01:14:59;;;;;;;;;;;;;;;;;;4955985;28;136914;-73
2022/04/23 01:17:25;;;;;;;;;;;;;;;;;;4951496;28;136172;-73
2022/04/23 01:19:51;;;;;;;;;;;;;;;;;;4952493;28;135763;-73
2022/04/23 01:22:18;;;;;;;;;;;;;;;;;;4952001;28;123930;-73
2022/04/23 01:24:44;;;;;;;;;;;;;;;;;;4953147;28;117207;-73
2022/04/23 01:27:10;;;;;;;;;;;;;;;;;;4952083;28;137278;-73
2022/04/23 01:29:38;;;;;;;;;;;;;;;;;;4951405;28;124149;-73
2022/04/23 01:32:04;;;;;;;;;;;;;;;;;;4952973;28;113842;-70
2022/04/23 01:34:30;;;;;;;;;;;;;;;;;;4952059;28;134303;-74
2022/04/23 01:36:57;;;;;;;;;;;;;;;;;;4957246;28;106140;-73
2022/04/23 01:39:23;;;;;;;;;;;;;;;;;;4950592;28;137804;-73
2022/04/23 01:41:49;;;;;;;;;;;;;;;;;;4952412;28;105987;-73
2022/04/23 01:44:15;;;;;;;;;;;;;;;;;;4952101;28;137247;-71
2022/04/23 01:46:42;;;;;;;;;;;;;;;;;;4951085;28;135416;-73
2022/04/23 01:49:08;;;;;;;;;;;;;;;;;;4952275;28;122636;-74
2022/04/23 01:51:34;;;;;;;;;;;;;;;;;;4951477;28;136142;-73
2022/04/23 01:54:01;;;;;;;;;;;;;;;;;;4952144;28;136423;-73
2022/04/23 01:56:27;;;;;;;;;;;;;;;;;;4951923;28;113971;-72
2022/04/23 01:58:53;;;;;;;;;;;;;;;;;;4955837;28;133788;-73
2022/04/23 02:01:20;;;;;;;;;;;;;;;;;;4953161;28;105862;-73
2022/04/23 02:03:46;;;;;;;;;;;;;;;;;;4966124;28;136642;-73
2022/04/23 02:06:13;;;;;;;;;;;;;;;;;;4949809;28;134981;-74
2022/04/23 02:08:39;;;;;;;;;;;;;;;;;;4950586;28;124417;-73
2022/04/23 02:11:06;;;;;;;;;;;;;;;;;;4951835;28;126121;-73
2022/04/23 02:13:34;;;;;;;;;;;;;;;;;;4951922;28;133495;-73
2022/04/23 02:16:03;;;;;;;;;;;;;;;;;;4952661;28;112633;-73
2022/04/23 02:18:30;;;;;;;;;;;;;;;;;;4955064;28;135221;-73
2022/04/23 02:20:56;;;;;;;;;;;;;;;;;;4952256;28;122940;-73
2022/04/23 02:23:23;;;;;;;;;;;;;;;;;;4951628;28;109262;-73
2022/04/23 02:25:49;;;;;;;;;;;;;;;;;;4953219;28;132173;-73
2022/04/23 02:28:15;;;;;;;;;;;;;;;;;;4954635;28;124026;-73
2022/04/23 02:30:42;;;;;;;;;;;;;;;;;;4954259;28;135768;-74
2022/04/23 02:33:08;;;;;;;;;;;;;;;;;;4954971;28;106542;-73
2022/04/23 02:35:34;;;;;;;;;;;;;;;;;;4955038;28;121876;-73
2022/04/23 02:38:04;;;;;;;;;;;;;;;;;;4955083;28;136550;-73
2022/04/23 02:40:31;;;;;;;;;;;;;;;;;;4958259;28;116732;-75
2022/04/23 02:42:57;;;;;;;;;;;;;;;;;;4955441;28;133831;-73
2022/04/23 02:45:25;;;;;;;;;;;;;;;;;;4954348;28;135729;-73
2022/04/23 02:47:51;;;;;;;;;;;;;;;;;;4955024;28;123997;-73
2022/04/23 02:50:18;;;;;;;;;;;;;;;;;;4955069;28;119086;-71
2022/04/23 02:52:44;;;;;;;;;;;;;;;;;;4954604;28;119058;-73
2022/04/23 02:55:11;;;;;;;;;;;;;;;;;;4953089;28;122471;-72
2022/04/23 02:57:37;;;;;;;;;;;;;;;;;;4954693;28;134922;-72
2022/04/23 03:00:04;;;;;;;;;;;;;;;;;;4954888;28;137044;-67
2022/04/23 03:02:36;;;;;;;;;;;;;;;;;;4959218;28;106665;-72
2022/04/23 03:05:02;;;;;;;;;;;;;;;;;;4974338;28;137472;-71
2022/04/23 03:07:30;;;;;;;;;;;;;;;;;;4967319;28;108012;-71
2022/04/23 03:09:56;;;;;;;;;;;;;;;;;;4953933;28;136969;-71
2022/04/23 03:12:23;;;;;;;;;;;;;;;;;;4954000;28;137012;-72
2022/04/23 03:14:49;;;;;;;;;;;;;;;;;;4954596;28;122297;-72
2022/04/23 03:17:15;;;;;;;;;;;;;;;;;;4955801;28;107045;-71
2022/04/23 03:19:41;;;;;;;;;;;;;;;;;;4967942;28;137694;-72
2022/04/23 03:22:08;;;;;;;;;;;;;;;;;;4953914;28;124096;-74
2022/04/23 03:24:34;;;;;;;;;;;;;;;;;;4957568;28;106879;-74
2022/04/23 03:27:01;;;;;;;;;;;;;;;;;;4970193;28;121857;-74
2022/04/23 03:29:27;;;;;;;;;;;;;;;;;;4953609;28;135415;-71
2022/04/23 03:31:54;;;;;;;;;;;;;;;;;;4954075;28;136720;-74
2022/04/23 03:34:20;;;;;;;;;;;;;;;;;;4954249;28;117400;-72
2022/04/23 03:36:47;;;;;;;;;;;;;;;;;;4953561;28;135314;-72
2022/04/23 03:39:15;;;;;;;;;;;;;;;;;;4954008;28;107695;-72
2022/04/23 03:41:41;;;;;;;;;;;;;;;;;;4953936;28;120788;-72
2022/04/23 03:44:07;;;;;;;;;;;;;;;;;;4968277;28;136900;-72
2022/04/23 03:46:34;;;;;;;;;;;;;;;;;;4972420;28;136971;-66
2022/04/23 03:49:00;;;;;;;;;;;;;;;;;;4953096;28;132557;-73
2022/04/23 03:51:26;;;;;;;;;;;;;;;;;;4952957;28;136010;-73
2022/04/23 03:53:52;;;;;;;;;;;;;;;;;;4953666;28;106485;-72
2022/04/23 03:56:19;;;;;;;;;;;;;;;;;;4953937;28;132373;-72
2022/04/23 03:58:45;;;;;;;;;;;;;;;;;;4952809;28;136309;-72
2022/04/23 04:01:12;;;;;;;;;;;;;;;;;;4955124;28;105608;-72
2022/04/23 04:03:38;;;;;;;;;;;;;;;;;;4953076;28;137197;-72
2022/04/23 04:06:04;;;;;;;;;;;;;;;;;;4953004;28;137860;-72
2022/04/23 04:08:30;;;;;;;;;;;;;;;;;;4955776;28;118878;-73
2022/04/23 04:10:57;;;;;;;;;;;;;;;;;;4952710;28;137079;-72
2022/04/23 04:13:23;;;;;;;;;;;;;;;;;;4953243;28;117105;-72
2022/04/23 04:15:50;;;;;;;;;;;;;;;;;;4951608;28;136462;-72
2022/04/23 04:18:16;;;;;;;;;;;;;;;;;;4952832;28;139249;-73
2022/04/23 04:20:46;;;;;;;;;;;;;;;;;;4954384;28;107286;-72
2022/04/23 04:23:13;;;;;;;;;;;;;;;;;;4953543;28;123014;-72
2022/04/23 04:25:39;;;;;;;;;;;;;;;;;;4952917;28;136296;-72
2022/04/23 04:28:06;;;;;;;;;;;;;;;;;;4956313;28;122632;-73
2022/04/23 04:31:47;;;;;;;;;;;;;;;;;;4954106;28;113818;-70
2022/04/23 04:33:19;;;;;;;;;;;;;;;;;;4952815;28;115781;-73
2022/04/23 04:35:45;;;;;;;;;;;;;;;;;;4953041;28;136398;-73
2022/04/23 04:38:11;;;;;;;;;;;;;;;;;;4951711;28;138471;-73
2022/04/23 04:40:37;;;;;;;;;;;;;;;;;;4953079;28;122033;-73
2022/04/23 04:43:04;;;;;;;;;;;;;;;;;;4954376;28;107179;-72
2022/04/23 04:45:30;;;;;;;;;;;;;;;;;;4952562;28;137086;-72
2022/04/23 04:47:56;;;;;;;;;;;;;;;;;;4952891;28;106322;-73
2022/04/23 04:50:23;;;;;;;;;;;;;;;;;;4955409;28;134724;-73
2022/04/23 04:52:49;;;;;;;;;;;;;;;;;;4953262;28;122657;-73
2022/04/23 04:55:16;;;;;;;;;;;;;;;;;;4952793;28;107304;-73
2022/04/23 04:57:42;;;;;;;;;;;;;;;;;;4951156;28;136302;-73
2022/04/23 05:00:08;;;;;;;;;;;;;;;;;;4953193;28;123089;-73
2022/04/23 05:02:35;;;;;;;;;;;;;;;;;;4952615;28;130344;-74
2022/04/23 05:05:01;;;;;;;;;;;;;;;;;;4952704;28;136891;-73
2022/04/23 05:07:27;;;;;;;;;;;;;;;;;;4951982;28;123308;-72
2022/04/23 05:09:54;;;;;;;;;;;;;;;;;;4951673;28;131909;-73
2022/04/23 05:12:20;;;;;;;;;;;;;;;;;;4955335;28;136832;-72
2022/04/23 05:14:46;;;;;;;;;;;;;;;;;;4952852;28;132457;-72
2022/04/23 05:17:15;;;;;;;;;;;;;;;;;;4952190;28;136968;-72
2022/04/23 05:19:42;;;;;;;;;;;;;;;;;;4952801;28;108037;-72
2022/04/23 05:22:08;;;;;;;;;;;;;;;;;;4951586;28;135880;-72
2022/04/23 05:24:34;;;;;;;;;;;;;;;;;;4952241;28;112324;-73
2022/04/23 05:27:01;;;;;;;;;;;;;;;;;;4952253;28;124709;-73
2022/04/23 05:29:27;;;;;;;;;;;;;;;;;;4951795;28;136564;-73
2022/04/23 05:31:53;;;;;;;;;;;;;;;;;;4953072;28;112855;-73
2022/04/23 05:34:20;;;;;;;;;;;;;;;;;;4956466;28;106013;-73
2022/04/23 05:36:46;;;;;;;;;;;;;;;;;;4952220;28;137764;-73
2022/04/23 05:39:12;;;;;;;;;;;;;;;;;;4951626;28;109893;-73
2022/04/23 05:41:41;;;;;;;;;;;;;;;;;;4952104;28;134981;-73
2022/04/23 05:44:07;;;;;;;;;;;;;;;;;;4951378;28;137078;-73
2022/04/23 05:46:34;;;;;;;;;;;;;;;;;;4952689;28;106619;-74
2022/04/23 05:49:00;;;;;;;;;;;;;;;;;;4952170;28;135133;-73
2022/04/23 05:51:26;;;;;;;;;;;;;;;;;;4951575;28;136581;-73
2022/04/23 05:53:53;;;;;;;;;;;;;;;;;;4951979;28;117984;-72
2022/04/23 05:56:19;;;;;;;;;;;;;;;;;;4955117;28;133973;-73
2022/04/23 05:58:46;;;;;;;;;;;;;;;;;;4952388;28;123898;-73
2022/04/23 06:01:12;;;;;;;;;;;;;;;;;;4955434;28;136392;-73
2022/04/23 06:03:39;;;;;;;;;;;;;;;;;;4955467;28;135946;-73
2022/04/23 06:06:05;;;;;;;;;;;;;;;;;;4956234;28;107155;-73
2022/04/23 06:08:31;;;;;;;;;;;;;;;;;;4954513;28;125581;-73
2022/04/23 06:11:02;;;;;;;;;;;;;;;;;;4954026;28;137522;-72
2022/04/23 06:13:28;;;;;;;;;;;;;;;;;;4955662;28;106871;-73
2022/04/23 06:15:55;;;;;;;;;;;;;;;;;;4955119;28;135126;-73
2022/04/23 06:18:22;;;;;;;;;;;;;;;;;;4958646;28;106572;-73
2022/04/23 06:20:48;;;;;;;;;;;;;;;;;;4954682;28;134584;-73
2022/04/23 06:23:14;;;;;;;;;;;;;;;;;;4954196;28;137322;-72
2022/04/23 06:25:40;;;;;;;;;;;;;;;;;;4954843;28;118027;-75
2022/04/23 06:28:10;;;;;;;;;;;;;;;;;;4955570;28;136052;-73
2022/04/23 06:30:36;;;;;;;;;;;;;;;;;;4954627;28;128849;-73
2022/04/23 06:33:02;;;;;;;;;;;;;;;;;;4956781;28;105908;-72
2022/04/23 06:35:30;;;;;;;;;;;;;;;;;;4953976;28;135075;-73
2022/04/23 06:37:56;;;;;;;;;;;;;;;;;;4957224;28;136954;-72
2022/04/23 06:40:22;;;;;;;;;;;;;;;;;;4955119;28;106973;-72
2022/04/23 06:42:49;;;;;;;;;;;;;;;;;;4954301;28;137472;-73
2022/04/23 06:45:19;;;;;;;;;;;;;;;;;;4954232;28;106525;-73
2022/04/23 06:47:45;;;;;;;;;;;;;;;;;;4954531;28;135243;-73
2022/04/23 06:50:12;;;;;;;;;;;;;;;;;;4953778;28;137824;-73
2022/04/23 06:52:38;;;;;;;;;;;;;;;;;;4954140;28;120450;-72
2022/04/23 06:55:04;;;;;;;;;;;;;;;;;;4954665;28;129164;-72
2022/04/23 06:57:31;;;;;;;;;;;;;;;;;;4954339;28;133472;-73
2022/04/23 06:59:57;;;;;;;;;;;;;;;;;;4957461;28;124015;-73
2022/04/23 07:02:23;;;;;;;;;;;;;;;;;;4954025;28;136248;-73
2022/04/23 07:04:50;;;;;;;;;;;;;;;;;;4954800;28;106752;-73
2022/04/23 07:07:16;;;;;;;;;;;;;;;;;;4954398;28;136260;-73
2022/04/23 07:09:42;;;;;;;;;;;;;;;;;;4953789;28;125458;-72
2022/04/23 07:12:09;;;;;;;;;;;;;;;;;;4954099;28;123936;-73
2022/04/23 07:14:35;;;;;;;;;;;;;;;;;;4954987;28;136437;-74
2022/04/23 07:17:05;;;;;;;;;;;;;;;;;;4954308;28;136923;-72
2022/04/23 07:19:32;;;;;;;;;;;;;;;;;;4953925;28;122514;-73
2022/04/23 07:21:59;;;;;;;;;;;;;;;;;;4957546;28;136909;-74
2022/04/23 07:24:25;;;;;;;;;;;;;;;;;;4951208;28;120764;-73
2022/04/23 07:26:51;;;;;;;;;;;;;;;;;;4954668;28;131995;-73
2022/04/23 07:29:18;;;;;;;;;;;;;;;;;;4954112;28;127848;-73
2022/04/23 07:31:44;;;;;;;;;;;;;;;;;;4953519;28;123708;-72
2022/04/23 07:39:40;;;;;;;;;;;;;;;;;;4953707;28;123159;-74
2022/04/23 07:42:08;;;;;;;;;;;;;;;;;;4957610;28;106987;-74
2022/04/23 07:44:34;;;;;;;;;;;;;;;;;;4958071;28;137274;-68
2022/04/23 07:47:00;;;;;;;;;;;;;;;;;;4956856;28;130827;-74
2022/04/23 07:49:27;;;;;;;;;;;;;;;;;;4954991;28;136098;-73
2022/04/23 07:51:53;;;;;;;;;;;;;;;;;;4955213;28;125739;-73
2022/04/23 07:54:19;;;;;;;;;;;;;;;;;;4953250;28;112231;-69
2022/04/23 07:56:45;;;;;;;;;;;;;;;;;;4953435;28;138414;-73
2022/04/23 07:59:12;;;;;;;;;;;;;;;;;;4953054;28;123516;-75
2022/04/23 08:01:38;;;;;;;;;;;;;;;;;;4953512;28;137344;-73
2022/04/23 08:04:06;;;;;;;;;;;;;;;;;;4953124;28;137022;-73
2022/04/23 08:06:33;;;;;;;;;;;;;;;;;;4958882;28;106090;-73
2022/04/23 08:09:00;;;;;;;;;;;;;;;;;;4954793;28;115578;-73
2022/04/23 08:11:27;;;;;;;;;;;;;;;;;;4952824;28;106374;-74
2022/04/23 08:13:53;;;;;;;;;;;;;;;;;;4953676;28;132913;-74
2022/04/23 08:16:20;;;;;;;;;;;;;;;;;;4952947;28;137655;-74
2022/04/23 08:18:46;;;;;;;;;;;;;;;;;;4954211;28;116669;-74
2022/04/23 08:21:12;;;;;;;;;;;;;;;;;;4953878;28;131029;-74
2022/04/23 08:23:39;;;;;;;;;;;;;;;;;;4952046;28;137589;-74
2022/04/23 08:26:05;;;;;;;;;;;;;;;;;;4957222;28;122193;-74
2022/04/23 08:31:16;;;;;;;;;;;;;;;;;;4953988;28;113018;-74
2022/04/23 08:33:58;;;;;;;;;;;;;;;;;;4953352;28;134925;-73
2022/04/23 08:36:26;;;;;;;;;;;;;;;;;;4950873;28;136860;-74
2022/04/23 08:38:56;;;;;;;;;;;;;;;;;;4951590;28;121895;-74
2022/04/23 08:41:28;;;;;;;;;;;;;;;;;;4952804;28;136277;-73
2022/04/23 08:43:55;;;;;;;;;;;;;;;;;;4953765;28;107380;-73
2022/04/23 08:46:22;;;;;;;;;;;;;;;;;;4952898;28;121767;-72
2022/04/23 08:48:49;;;;;;;;;;;;;;;;;;4956968;28;135986;-74
2022/04/23 08:51:15;;;;;;;;;;;;;;;;;;4953330;28;116316;-74
2022/04/23 08:53:41;;;;;;;;;;;;;;;;;;4952214;28;134708;-70
2022/04/23 08:56:08;;;;;;;;;;;;;;;;;;4953018;28;137342;-76
2022/04/23 08:58:34;;;;;;;;;;;;;;;;;;4951100;28;120215;-68
2022/04/23 09:01:00;;;;;;;;;;;;;;;;;;4953585;28;137806;-76
2022/04/23 09:03:26;;;;;;;;;;;;;;;;;;4950859;28;135755;-76
2022/04/23 09:05:53;;;;;;;;;;;;;;;;;;4953516;28;114468;-76
2022/04/23 09:08:19;;;;;;;;;;;;;;;;;;4968062;28;108634;-76
2022/04/23 09:10:45;;;;;;;;;;;;;;;;;;4955311;28;135508;-76
2022/04/23 09:13:12;;;;;;;;;;;;;;;;;;4952557;28;135263;-76
2022/04/23 09:23:53;;;;;;;;;;;;;;;;;;4951512;28;135447;-76
2022/04/23 09:26:21;;;;;;;;;;;;;;;;;;4952725;28;106205;-76
2022/04/23 09:28:48;;;;;;;;;;;;;;;;;;4951576;28;126522;-76
2022/04/23 09:31:15;;;;;;;;;;;;;;;;;;4952333;28;134250;-76
2022/04/23 09:33:41;;;;;;;;;;;;;;;;;;4972640;28;124250;-76
2022/04/23 09:36:08;;;;;;;;;;;;;;;;;;4970658;28;137294;-76
2022/04/23 09:38:34;;;;;;;;;;;;;;;;;;4951341;28;122992;-76
2022/04/23 09:41:15;;;;;;;;;;;;;;;;;;4952925;28;134885;-76
2022/04/23 09:43:42;;;;;;;;;;;;;;;;;;4951588;28;136695;-77
2022/04/23 09:46:08;;;;;;;;;;;;;;;;;;4952171;28;121623;-72
2022/04/23 09:48:38;;;;;;;;;;;;;;;;;;4966928;28;133128;-75
2022/04/23 09:51:04;;;;;;;;;;;;;;;;;;4951250;28;138145;-72
2022/04/23 09:53:30;;;;;;;;;;;;;;;;;;4951054;28;110639;-75
2022/04/23 09:56:00;;;;;;;;;;;;;;;;;;4955544;28;135816;-75
2022/04/23 09:58:29;;;;;;;;;;;;;;;;;;4952111;28;123157;-76
2022/04/23 10:00:56;;;;;;;;;;;;;;;;;;4952029;28;137442;-76
2022/04/23 10:03:22;;;;;;;;;;;;;;;;;;4951949;28;133813;-76
2022/04/23 10:05:49;;;;;;;;;;;;;;;;;;4952988;28;109257;-76
2022/04/23 10:08:15;;;;;;;;;;;;;;;;;;4951040;28;134443;-76
2022/04/23 10:10:41;;;;;;;;;;;;;;;;;;4952104;28;114328;-72
2022/04/23 10:13:08;;;;;;;;;;;;;;;;;;4951736;28;122823;-76
2022/04/23 10:15:34;;;;;;;;;;;;;;;;;;4952649;28;135312;-69
2022/04/23 10:18:01;;;;;;;;;;;;;;;;;;4954346;28;134960;-76
2022/04/23 10:20:29;;;;;;;;;;;;;;;;;;4972076;28;106742;-76
2022/04/23 10:22:56;;;;;;;;;;;;;;;;;;4952838;28;137167;-75
2022/04/23 10:25:24;;;;;;;;;;;;;;;;;;4951315;28;123861;-75
2022/04/23 10:27:50;;;;;;;;;;;;;;;;;;4952387;28;119547;-75
2022/04/23 10:30:16;;;;;;;;;;;;;;;;;;4951400;28;129798;-76
2022/04/23 10:32:43;;;;;;;;;;;;;;;;;;4952273;28;121819;-71
2022/04/23 10:35:09;;;;;;;;;;;;;;;;;;4952236;28;124261;-75
2022/04/23 10:37:36;;;;;;;;;;;;;;;;;;4953799;28;135804;-76
2022/04/23 10:40:02;;;;;;;;;;;;;;;;;;4951772;28;136481;-76
2022/04/23 10:42:31;;;;;;;;;;;;;;;;;;4949812;28;137249;-75
2022/04/23 10:44:58;;;;;;;;;;;;;;;;;;4951242;28;124465;-76
2022/04/23 10:47:24;;;;;;;;;;;;;;;;;;4954338;28;123213;-77
2022/04/23 10:49:53;;;;;;;;;;;;;;;;;;4954215;28;137851;-76
2022/04/23 10:52:19;;;;;;;;;;;;;;;;;;4955279;28;107401;-76
2022/04/23 10:54:47;;;;;;;;;;;;;;;;;;4955328;28;106873;-76
2022/04/23 10:57:13;;;;;;;;;;;;;;;;;;4954652;28;115031;-77
2022/04/23 10:59:39;;;;;;;;;;;;;;;;;;4958448;28;108521;-76
2022/04/23 11:02:06;;;;;;;;;;;;;;;;;;4953944;28;134441;-76
2022/04/23 11:04:34;;;;;;;;;;;;;;;;;;4955056;28;122039;-76
2022/04/23 11:12:32;;;;;;;;;;;;;;;;;;4954562;28;123757;-77
2022/04/23 11:14:58;;;;;;;;;;;;;;;;;;4955262;28;116248;-76
2022/04/23 11:17:25;;;;;;;;;;;;;;;;;;4953658;28;136131;-76
2022/04/23 11:19:52;;;;;;;;;;;;;;;;;;4954571;28;123157;-76
2022/04/23 11:22:19;;;;;;;;;;;;;;;;;;4956943;28;137044;-78
2022/04/23 11:24:46;;;;;;;;;;;;;;;;;;4954707;28;106683;-77
2022/04/23 11:27:12;;;;;;;;;;;;;;;;;;4954092;28;135747;-76
2022/04/23 11:29:39;;;;;;;;;;;;;;;;;;4953478;28;138036;-77
2022/04/23 11:32:07;;;;;;;;;;;;;;;;;;4952393;28;123798;-76
2022/04/23 11:34:38;;;;;;;;;;;;;;;;;;4954259;28;133783;-73
2022/04/23 11:37:04;;;;;;;;;;;;;;;;;;4952655;28;137188;-76
2022/04/23 11:39:31;;;;;;;;;;;;;;;;;;4954398;28;113837;-76
2022/04/23 11:41:57;;;;;;;;;;;;;;;;;;4953975;28;136875;-74
2022/04/23 11:47:08;;;;;;;;;;;;;;;;;;4952397;28;135399;-74
2022/04/23 11:49:34;;;;;;;;;;;;;;;;;;4953825;28;124249;-75
2022/04/23 11:52:01;;;;;;;;;;;;;;;;;;4953948;28;122598;-76
2022/04/23 11:54:28;;;;;;;;;;;;;;;;;;4952904;28;126798;-76
2022/04/23 11:56:54;;;;;;;;;;;;;;;;;;4952057;28;135922;-76
2022/04/23 11:59:20;;;;;;;;;;;;;;;;;;4953860;28;125196;-76
2022/04/23 12:01:47;;;;;;;;;;;;;;;;;;4953276;28;137617;-78
2022/04/23 12:04:13;;;;;;;;;;;;;;;;;;4952721;28;136589;-74
2022/04/23 12:06:39;;;;;;;;;;;;;;;;;;4956888;28;122832;-76
2022/04/23 12:09:07;;;;;;;;;;;;;;;;;;4951743;28;138585;-76
2022/04/23 12:11:33;;;;;;;;;;;;;;;;;;4953734;28;107635;-76
2022/04/23 12:13:59;;;;;;;;;;;;;;;;;;4954134;28;129312;-76
2022/04/23 12:16:26;;;;;;;;;;;;;;;;;;4953089;28;135838;-77
2022/04/23 12:18:52;;;;;;;;;;;;;;;;;;4953575;28;109798;-76
2022/04/23 12:21:18;;;;;;;;;;;;;;;;;;4952520;28;136742;-76
2022/04/23 12:23:45;;;;;;;;;;;;;;;;;;4951800;28;138103;-76
2022/04/23 12:26:13;;;;;;;;;;;;;;;;;;4954142;28;106101;-76
2022/04/23 12:42:26;;;;;;;;;;;;;;;;;;4952387;28;137211;-76
2022/04/23 12:44:53;;;;;;;;;;;;;;;;;;4952808;28;129671;-71
2022/04/23 12:47:20;;;;;;;;;;;;;;;;;;4952621;28;118632;-77
2022/04/23 12:49:47;;;;;;;;;;;;;;;;;;4955534;28;136953;-76
2022/04/23 12:52:14;;;;;;;;;;;;;;;;;;4952408;28;118786;-78
2022/04/23 12:54:41;;;;;;;;;;;;;;;;;;4952205;28;137113;-76
2022/04/23 12:57:07;;;;;;;;;;;;;;;;;;4952099;28;138096;-76
2022/04/23 12:59:33;;;;;;;;;;;;;;;;;;4952946;28;123163;-76
2022/04/23 13:02:00;;;;;;;;;;;;;;;;;;4952862;28;135753;-76
2022/04/23 13:04:27;;;;;;;;;;;;;;;;;;4951920;28;137774;-76
2022/04/23 13:09:38;;;;;;;;;;;;;;;;;;4951349;28;136228;-76
2022/04/23 13:12:05;;;;;;;;;;;;;;;;;;4953783;28;129659;-76
2022/04/23 13:14:32;;;;;;;;;;;;;;;;;;4954175;28;124415;-75
2022/04/23 13:16:58;;;;;;;;;;;;;;;;;;4952277;28;127489;-76
2022/04/23 13:19:24;;;;;;;;;;;;;;;;;;4953028;28;106548;-76
2022/04/23 13:21:51;;;;;;;;;;;;;;;;;;4951424;28;135686;-77
2022/04/23 13:24:17;;;;;;;;;;;;;;;;;;4952613;28;114315;-77
2022/04/23 13:26:43;;;;;;;;;;;;;;;;;;4952319;28;123369;-76
2022/04/23 13:29:10;;;;;;;;;;;;;;;;;;4952763;28;131074;-77
2022/04/23 13:31:39;;;;;;;;;;;;;;;;;;4951654;28;135426;-76
2022/04/23 13:34:05;;;;;;;;;;;;;;;;;;4955279;28;114634;-76
2022/04/23 13:36:33;;;;;;;;;;;;;;;;;;4950303;28;137278;-74
2022/04/23 13:38:59;;;;;;;;;;;;;;;;;;4952487;28;124091;-76
2022/04/23 13:41:26;;;;;;;;;;;;;;;;;;4951893;28;135705;-75
2022/04/23 13:43:52;;;;;;;;;;;;;;;;;;4952459;28;107497;-74
2022/04/23 13:46:18;;;;;;;;;;;;;;;;;;4951981;28;124590;-75
2022/04/23 13:48:45;;;;;;;;;;;;;;;;;;4951987;28;137630;-76
2022/04/23 13:51:11;;;;;;;;;;;;;;;;;;4950773;28;137445;-76
2022/04/23 13:53:37;;;;;;;;;;;;;;;;;;4952055;28;121803;-76
2022/04/23 13:56:03;;;;;;;;;;;;;;;;;;4955310;28;136946;-76
2022/04/23 13:58:30;;;;;;;;;;;;;;;;;;4951405;28;124420;-77
2022/04/23 14:00:56;;;;;;;;;;;;;;;;;;4952078;28;119715;-77
2022/04/23 14:11:38;;;;;;;;;;;;;;;;;;4950791;28;137421;-77
2022/04/23 14:14:07;;;;;;;;;;;;;;;;;;4951519;28;123274;-77
2022/04/23 14:16:34;;;;;;;;;;;;;;;;;;4952505;28;121134;-68
2022/04/23 14:19:00;;;;;;;;;;;;;;;;;;4955713;28;137239;-77
2022/04/23 14:21:27;;;;;;;;;;;;;;;;;;4953501;28;113024;-77
2022/04/23 14:23:53;;;;;;;;;;;;;;;;;;4955290;28;137332;-76
2022/04/23 14:26:19;;;;;;;;;;;;;;;;;;4954318;28;122849;-77
2022/04/23 14:28:46;;;;;;;;;;;;;;;;;;4954982;28;138676;-77
2022/04/23 14:31:12;;;;;;;;;;;;;;;;;;4954408;28;138611;-77
2022/04/23 14:33:38;;;;;;;;;;;;;;;;;;4954510;28;123160;-77
2022/04/23 14:36:05;;;;;;;;;;;;;;;;;;4956243;28;107924;-78
2022/04/23 14:38:31;;;;;;;;;;;;;;;;;;4953932;28;138236;-77
2022/04/23 14:40:57;;;;;;;;;;;;;;;;;;4958344;28;123616;-75
2022/04/23 14:43:29;;;;;;;;;;;;;;;;;;4954669;28;139912;-77
2022/04/23 14:45:56;;;;;;;;;;;;;;;;;;4954876;28;122933;-77
2022/04/23 14:48:23;;;;;;;;;;;;;;;;;;4954308;28;132216;-77
2022/04/23 14:53:34;;;;;;;;;;;;;;;;;;4954853;28;125471;-71
2022/04/23 14:56:00;;;;;;;;;;;;;;;;;;4955406;28;127697;-76
2022/04/23 14:58:27;;;;;;;;;;;;;;;;;;4952091;28;108528;-77
2022/04/23 15:00:55;;;;;;;;;;;;;;;;;;4958658;28;123786;-76
2022/04/23 15:03:21;;;;;;;;;;;;;;;;;;4954358;28;115174;-74
2022/04/23 15:05:48;;;;;;;;;;;;;;;;;;4955547;28;106681;-77
2022/04/23 15:08:14;;;;;;;;;;;;;;;;;;4953258;28;136530;-77
2022/04/23 15:10:40;;;;;;;;;;;;;;;;;;4954146;28;124268;-76
2022/04/23 15:13:08;;;;;;;;;;;;;;;;;;4953735;28;123302;-76
2022/04/23 15:15:34;;;;;;;;;;;;;;;;;;4953555;28;136729;-76
2022/04/23 15:18:01;;;;;;;;;;;;;;;;;;4954269;28;135656;-76
2022/04/23 15:20:27;;;;;;;;;;;;;;;;;;4954333;28;116252;-77
2022/04/23 15:22:53;;;;;;;;;;;;;;;;;;4956851;28;135530;-76
2022/04/23 15:25:20;;;;;;;;;;;;;;;;;;4953693;28;121337;-76
2022/04/23 15:27:46;;;;;;;;;;;;;;;;;;4954797;28;117558;-76
2022/04/23 15:30:12;;;;;;;;;;;;;;;;;;4953495;28;127267;-76
2022/04/23 15:32:39;;;;;;;;;;;;;;;;;;4954288;28;107533;-77
2022/04/23 15:35:05;;;;;;;;;;;;;;;;;;4955241;28;118887;-77
2022/04/23 15:37:31;;;;;;;;;;;;;;;;;;4952569;28;138216;-76
2022/04/23 15:39:57;;;;;;;;;;;;;;;;;;4953316;28;122021;-76
2022/04/23 15:42:24;;;;;;;;;;;;;;;;;;4953624;28;136520;-76
2022/04/23 15:44:50;;;;;;;;;;;;;;;;;;4957069;28;137643;-76
2022/04/23 15:47:16;;;;;;;;;;;;;;;;;;4953453;28;136679;-75
2022/04/23 15:49:43;;;;;;;;;;;;;;;;;;4954105;28;107320;-75
2022/04/23 15:52:12;;;;;;;;;;;;;;;;;;4953152;28;122175;-75
2022/04/23 15:54:38;;;;;;;;;;;;;;;;;;4954205;28;106935;-76
2022/04/23 15:57:04;;;;;;;;;;;;;;;;;;4951981;28;138821;-76
2022/04/23 15:59:31;;;;;;;;;;;;;;;;;;4954101;28;106311;-76
2022/04/23 16:01:57;;;;;;;;;;;;;;;;;;4953555;28;137188;-77
2022/04/23 16:04:24;;;;;;;;;;;;;;;;;;4952192;28;137016;-77
2022/04/23 16:06:51;;;;;;;;;;;;;;;;;;4956207;28;127398;-77
2022/04/23 16:09:20;;;;;;;;;;;;;;;;;;4954536;28;106571;-77
2022/04/23 16:11:46;;;;;;;;;;;;;;;;;;4953255;28;123622;-78
2022/04/23 16:14:13;;;;;;;;;;;;;;;;;;4953717;28;135152;-77
2022/04/23 16:16:59;;;;;;;;;;;;;;;;;;4953993;28;107961;-77
2022/04/23 16:19:25;;;;;;;;;;;;;;;;;;4953354;28;123200;-77
2022/04/23 16:21:51;;;;;;;;;;;;;;;;;;4952820;28;132588;-77
2022/04/23 16:24:18;;;;;;;;;;;;;;;;;;4952721;28;137953;-78
2022/04/23 16:26:44;;;;;;;;;;;;;;;;;;4953364;28;118919;-77
2022/04/23 16:29:10;;;;;;;;;;;;;;;;;;4956022;28;136737;-78
2022/04/23 16:31:37;;;;;;;;;;;;;;;;;;4952612;28;125672;-77
2022/04/23 16:34:03;;;;;;;;;;;;;;;;;;4953484;28;137729;-77
2022/04/23 16:47:37;;;;;;;;;;;;;;;;;;4952627;28;123275;-76
2022/04/23 16:50:03;;;;;;;;;;;;;;;;;;4953899;28;134277;-77
2022/04/23 16:52:29;;;;;;;;;;;;;;;;;;4955245;28;106236;-75
2022/04/23 16:54:56;;;;;;;;;;;;;;;;;;4951875;28;136601;-76
2022/04/23 16:57:22;;;;;;;;;;;;;;;;;;4952098;28;134458;-77
2022/04/23 16:59:48;;;;;;;;;;;;;;;;;;4952382;28;123414;-76
2022/04/23 17:02:15;;;;;;;;;;;;;;;;;;4953378;28;135027;-76
2022/04/23 17:04:41;;;;;;;;;;;;;;;;;;4952320;28;138272;-76
2022/04/23 17:07:08;;;;;;;;;;;;;;;;;;4952025;28;122394;-77
2022/04/23 17:09:34;;;;;;;;;;;;;;;;;;4953760;28;112620;-71
2022/04/23 17:12:00;;;;;;;;;;;;;;;;;;4957255;28;106419;-76
2022/04/23 17:14:27;;;;;;;;;;;;;;;;;;4952210;28;122363;-78
2022/04/23 17:16:53;;;;;;;;;;;;;;;;;;4967221;28;135770;-76
2022/04/23 17:19:20;;;;;;;;;;;;;;;;;;4951507;28;118105;-75
2022/04/23 17:21:46;;;;;;;;;;;;;;;;;;4952396;28;114436;-76
2022/04/23 17:24:16;;;;;;;;;;;;;;;;;;4951698;28;137637;-76
2022/04/23 17:26:43;;;;;;;;;;;;;;;;;;4951945;28;123113;-76
2022/04/23 17:29:09;;;;;;;;;;;;;;;;;;4953871;28;107078;-76